createdAt,value
2023-03-26T00:01:24.001Z,99644.31
2023-03-26T00:03:58.000Z,99640.13
2023-03-26T00:06:28.981Z,99585.25
2023-03-26T00:08:58.417Z,99575.19
2023-03-26T00:11:29.824Z,99579.59
2023-03-26T00:13:58.932Z,99360.13
2023-03-26T00:16:29.295Z,99647.69
2023-03-26T00:19:01.512Z,99526.59
2023-03-26T00:21:31.493Z,99640.94
2023-03-26T00:24:04.624Z,99644.47
2023-03-26T00:26:33.705Z,99650.34
2023-03-26T00:29:04.208Z,99650.25
2023-03-26T00:31:33.016Z,99549.50
2023-03-26T00:34:03.846Z,99645.09
2023-03-26T00:36:32.273Z,99644.13
2023-03-26T00:39:05.897Z,99656.03
2023-03-26T00:41:43.066Z,99648.31
2023-03-26T00:44:12.157Z,99315.94
2023-03-26T00:46:40.481Z,99639.00
2023-03-26T00:49:11.167Z,99633.78
2023-03-26T00:51:39.705Z,99463.00
2023-03-26T00:54:08.820Z,99634.81
2023-03-26T00:56:37.196Z,99475.53
2023-03-26T00:59:05.869Z,99640.34
2023-03-26T01:01:34.043Z,99596.59
2023-03-26T01:04:27.888Z,99195.63
2023-03-26T01:06:58.585Z,99041.59
2023-03-26T01:09:38.042Z,99362.06
2023-03-26T01:12:10.397Z,99648.56
2023-03-26T01:14:40.021Z,99622.97
2023-03-26T01:17:09.286Z,99646.72
2023-03-26T01:19:46.819Z,99652.72
2023-03-26T01:22:17.615Z,99600.34
2023-03-26T01:24:53.695Z,99591.72
2023-03-26T01:27:32.117Z,99611.75
2023-03-26T01:30:06.976Z,99645.41
2023-03-26T01:32:55.611Z,99653.44
2023-03-26T01:35:32.546Z,99651.84
2023-03-26T01:38:11.952Z,99656.09
2023-03-26T01:40:49.680Z,99660.38
2023-03-26T01:43:31.893Z,99559.44
2023-03-26T01:46:03.731Z,99648.94
2023-03-26T01:48:34.934Z,99654.06
2023-03-26T01:51:03.701Z,99556.78
2023-03-26T01:53:33.776Z,99668.00
2023-03-26T01:56:12.893Z,99666.38
2023-03-26T01:58:53.397Z,99669.84
2023-03-26T02:01:30.355Z,99661.34
2023-03-26T02:04:04.899Z,99644.41
2023-03-26T02:06:43.337Z,99587.22
2023-03-26T02:09:15.842Z,99453.44
2023-03-26T02:11:46.863Z,99650.06
2023-03-26T02:14:16.303Z,99625.75
2023-03-26T02:16:47.209Z,99656.66
2023-03-26T02:19:21.915Z,99656.66
2023-03-26T02:21:53.672Z,99571.66
2023-03-26T02:24:22.265Z,99628.94
2023-03-26T02:26:51.956Z,99653.09
2023-03-26T02:29:22.374Z,99542.66
2023-03-26T02:31:50.771Z,99586.44
2023-03-26T02:34:18.948Z,99455.50
2023-03-26T02:36:49.957Z,99556.97
2023-03-26T02:39:18.994Z,99639.31
2023-03-26T02:41:47.251Z,99664.03
2023-03-26T02:44:16.537Z,99651.53
2023-03-26T02:46:44.361Z,99667.56
2023-03-26T02:49:12.538Z,99493.25
2023-03-26T02:51:40.548Z,99666.75
2023-03-26T02:54:08.532Z,99640.28
2023-03-26T02:56:36.983Z,99666.69
2023-03-26T02:59:04.848Z,99664.91
2023-03-26T03:01:35.210Z,99664.09
2023-03-26T03:04:04.647Z,99665.00
2023-03-26T03:06:32.557Z,99666.69
2023-03-26T03:09:02.717Z,99671.03
2023-03-26T03:11:30.903Z,99577.16
2023-03-26T03:13:58.760Z,99672.97
2023-03-26T03:16:26.975Z,99672.16
2023-03-26T03:18:58.183Z,99668.69
2023-03-26T03:21:27.941Z,99661.78
2023-03-26T03:23:56.242Z,99677.22
2023-03-26T03:26:30.120Z,99574.69
2023-03-26T03:28:59.301Z,99669.69
2023-03-26T03:31:28.516Z,99577.59
2023-03-26T03:33:58.054Z,99680.94
2023-03-26T03:36:27.908Z,99628.16
2023-03-26T03:39:02.848Z,99673.31
2023-03-26T03:41:31.248Z,99674.34
2023-03-26T03:43:59.933Z,99537.84
2023-03-26T03:46:27.998Z,99653.81
2023-03-26T03:48:57.453Z,99572.81
2023-03-26T03:51:25.431Z,99677.91
2023-03-26T03:53:54.623Z,99677.81
2023-03-26T03:56:24.320Z,99664.16
2023-03-26T03:58:52.148Z,99665.84
2023-03-26T04:01:23.055Z,99598.03
2023-03-26T04:03:51.322Z,99525.66
2023-03-26T04:06:20.659Z,99665.84
2023-03-26T04:08:48.956Z,99663.28
2023-03-26T04:11:16.962Z,99670.09
2023-03-26T04:13:44.842Z,99668.34
2023-03-26T04:16:13.006Z,99671.69
2023-03-26T04:18:41.133Z,99675.97
2023-03-26T04:21:09.173Z,99675.97
2023-03-26T04:23:38.650Z,99639.31
2023-03-26T04:26:10.597Z,99650.19
2023-03-26T04:28:46.593Z,99528.91
2023-03-26T04:31:17.966Z,99676.94
2023-03-26T04:33:47.806Z,99594.16
2023-03-26T04:36:17.692Z,99684.66
2023-03-26T04:38:52.128Z,99686.59
2023-03-26T04:41:20.116Z,99685.78
2023-03-26T04:43:50.873Z,99684.28
2023-03-26T04:46:21.915Z,99680.00
2023-03-26T04:48:50.307Z,99662.13
2023-03-26T04:51:22.046Z,99687.66
2023-03-26T04:53:54.804Z,99600.06
2023-03-26T04:56:35.812Z,99490.59
2023-03-26T04:59:04.981Z,99623.50
2023-03-26T05:01:34.188Z,99661.59
2023-03-26T05:04:02.086Z,99688.16
2023-03-26T05:06:30.570Z,99683.97
2023-03-26T05:08:59.808Z,99686.63
2023-03-26T05:11:27.770Z,99688.50
2023-03-26T05:13:57.144Z,99682.53
2023-03-26T05:16:26.036Z,99684.31
2023-03-26T05:18:54.128Z,99644.56
2023-03-26T05:21:23.113Z,99692.38
2023-03-26T05:23:51.073Z,99534.09
2023-03-26T05:26:20.804Z,99692.63
2023-03-26T05:28:49.119Z,99688.44
2023-03-26T05:31:21.201Z,99693.75
2023-03-26T05:33:49.818Z,99650.38
2023-03-26T05:36:19.306Z,99537.34
2023-03-26T05:38:47.792Z,99696.75
2023-03-26T05:41:15.813Z,99697.63
2023-03-26T05:43:47.335Z,99655.47
2023-03-26T05:46:15.743Z,99699.09
2023-03-26T05:48:43.728Z,99645.00
2023-03-26T05:51:12.464Z,99697.81
2023-03-26T05:53:40.469Z,99617.53
2023-03-26T05:56:09.091Z,99693.81
2023-03-26T05:58:38.062Z,99659.13
2023-03-26T06:01:09.161Z,99673.78
2023-03-26T06:03:39.559Z,99595.25
2023-03-26T06:06:08.638Z,99717.56
2023-03-26T06:08:36.611Z,99703.97
2023-03-26T06:11:08.285Z,99707.41
2023-03-26T06:13:36.277Z,99692.38
2023-03-26T06:16:04.189Z,99652.78
2023-03-26T06:18:33.730Z,99689.94
2023-03-26T06:21:01.850Z,99687.53
2023-03-26T06:23:29.715Z,99695.44
2023-03-26T06:25:58.222Z,99567.19
2023-03-26T06:28:26.397Z,99699.22
2023-03-26T06:30:54.918Z,99678.78
2023-03-26T06:33:24.618Z,99619.97
2023-03-26T06:35:53.997Z,99700.19
2023-03-26T06:38:21.978Z,99669.34
2023-03-26T06:40:50.269Z,99723.44
2023-03-26T06:43:18.221Z,99703.72
2023-03-26T06:45:46.154Z,99708.06
2023-03-26T06:48:14.236Z,99709.75
2023-03-26T06:50:42.173Z,99568.63
2023-03-26T06:53:12.236Z,99572.97
2023-03-26T06:55:40.243Z,99719.34
2023-03-26T06:58:08.154Z,99718.53
2023-03-26T07:00:36.124Z,99714.97
2023-03-26T07:03:04.837Z,99718.44
2023-03-26T07:05:32.835Z,99723.69
2023-03-26T07:08:00.754Z,99647.72
2023-03-26T07:10:30.379Z,99724.66
2023-03-26T07:12:58.293Z,99730.69
2023-03-26T07:15:26.211Z,99722.06
2023-03-26T07:17:54.223Z,99729.00
2023-03-26T07:20:22.196Z,99727.53
2023-03-26T07:22:51.092Z,99730.13
2023-03-26T07:25:19.865Z,99732.84
2023-03-26T07:28:00.455Z,99727.88
2023-03-26T07:30:37.641Z,99739.22
2023-03-26T07:33:11.124Z,99726.41
2023-03-26T07:35:45.202Z,99603.94
2023-03-26T07:38:34.300Z,99739.53
2023-03-26T07:41:10.256Z,99739.75
2023-03-26T07:43:57.424Z,99743.19
2023-03-26T07:46:31.976Z,99739.16
2023-03-26T07:49:01.943Z,99741.81
2023-03-26T07:51:30.853Z,99719.72
2023-03-26T07:54:00.711Z,99735.88
2023-03-26T07:56:36.133Z,99743.50
2023-03-26T07:59:14.974Z,99708.88
2023-03-26T08:01:56.732Z,99745.59
2023-03-26T08:04:58.744Z,99636.84
2023-03-26T08:07:35.041Z,99752.03
2023-03-26T08:10:09.557Z,99744.31
2023-03-26T08:12:47.515Z,99749.63
2023-03-26T08:15:26.338Z,99754.94
2023-03-26T08:18:01.137Z,99744.13
2023-03-26T08:20:38.316Z,99747.00
2023-03-26T08:23:12.729Z,99593.06
2023-03-26T08:25:52.420Z,99755.34
2023-03-26T08:28:38.055Z,99680.34
2023-03-26T08:31:11.146Z,99755.31
2023-03-26T08:33:40.960Z,99702.97
2023-03-26T08:36:09.761Z,99753.19
2023-03-26T08:38:37.854Z,99750.09
2023-03-26T08:41:54.674Z,99599.72
2023-03-26T08:45:18.146Z,99750.38
2023-03-26T08:48:48.704Z,99757.75
2023-03-26T08:51:57.360Z,99764.47
2023-03-26T08:54:52.242Z,99764.84
2023-03-26T08:57:50.490Z,99764.03
2023-03-26T09:00:39.580Z,99582.28
2023-03-26T09:03:34.714Z,99736.00
2023-03-26T09:06:44.255Z,99751.41
2023-03-26T09:09:51.653Z,99668.94
2023-03-26T09:12:49.726Z,99749.34
2023-03-26T09:15:35.887Z,99481.19
2023-03-26T09:18:42.732Z,99755.69
2023-03-26T09:21:37.182Z,99665.06
2023-03-26T09:24:37.324Z,99762.09
2023-03-26T09:27:17.685Z,99746.41
2023-03-26T09:30:38.110Z,99763.59
2023-03-26T09:33:34.919Z,99767.78
2023-03-26T09:36:22.558Z,99733.94
2023-03-26T09:38:55.764Z,99757.69
2023-03-26T09:41:39.307Z,99700.75
2023-03-26T09:44:37.572Z,99762.84
2023-03-26T09:47:28.477Z,99769.53
2023-03-26T09:50:11.394Z,99766.22
2023-03-26T09:53:04.095Z,99764.69
2023-03-26T09:55:44.129Z,99772.56
2023-03-26T09:58:58.072Z,99775.16
2023-03-26T10:01:32.306Z,99780.69
2023-03-26T10:04:18.777Z,99777.38
2023-03-26T10:06:59.867Z,99779.22
2023-03-26T10:09:41.042Z,99700.53
2023-03-26T10:12:21.814Z,99773.25
2023-03-26T10:15:02.195Z,99773.53
2023-03-26T10:17:44.404Z,99773.53
2023-03-26T10:20:35.417Z,99782.25
2023-03-26T10:23:14.523Z,99772.00
2023-03-26T10:25:56.378Z,99778.19
2023-03-26T10:28:48.207Z,99785.13
2023-03-26T10:31:34.392Z,99791.84
2023-03-26T10:34:28.240Z,99780.47
2023-03-26T10:37:04.216Z,99621.00
2023-03-26T10:40:01.821Z,99784.09
2023-03-26T10:42:44.754Z,99763.38
2023-03-26T10:45:40.075Z,99750.03
2023-03-26T10:48:27.926Z,99785.41
2023-03-26T10:51:13.150Z,99788.06
2023-03-26T10:53:48.947Z,99790.81
2023-03-26T10:56:28.743Z,99777.38
2023-03-26T10:58:59.078Z,99667.16
2023-03-26T11:01:40.453Z,99632.81
2023-03-26T11:04:41.384Z,99742.44
2023-03-26T11:07:22.102Z,99790.34
2023-03-26T11:10:00.613Z,99785.03
2023-03-26T11:12:36.445Z,99786.00
2023-03-26T11:15:17.168Z,99786.16
2023-03-26T11:17:52.166Z,99702.25
2023-03-26T11:20:28.578Z,99782.91
2023-03-26T11:23:11.492Z,99803.72
2023-03-26T11:25:58.733Z,99785.91
2023-03-26T11:28:42.865Z,99569.97
2023-03-26T11:31:42.601Z,99791.94
2023-03-26T11:34:18.343Z,99793.91
2023-03-26T11:36:52.656Z,99789.09
2023-03-26T11:39:25.030Z,99797.06
2023-03-26T11:42:00.492Z,99797.06
2023-03-26T11:44:33.118Z,99784.75
2023-03-26T11:47:10.243Z,99792.91
2023-03-26T11:49:39.713Z,99797.81
2023-03-26T11:52:15.827Z,99801.13
2023-03-26T11:54:48.327Z,99802.31
2023-03-26T11:57:22.652Z,99799.19
2023-03-26T11:59:58.171Z,99789.25
2023-03-26T12:02:32.625Z,99788.84
2023-03-26T12:05:16.370Z,99727.41
2023-03-26T12:07:51.287Z,99792.50
2023-03-26T12:10:26.223Z,99737.81
2023-03-26T12:12:57.507Z,99784.94
2023-03-26T12:15:26.938Z,99788.09
2023-03-26T12:17:58.121Z,99803.34
2023-03-26T12:20:39.199Z,99761.34
2023-03-26T12:23:31.770Z,99807.34
2023-03-26T12:26:14.955Z,99686.88
2023-03-26T12:28:56.606Z,99732.41
2023-03-26T12:31:26.792Z,99591.44
2023-03-26T12:34:11.506Z,99801.94
2023-03-26T12:36:39.894Z,99806.63
2023-03-26T12:40:10.336Z,99809.44
2023-03-26T12:44:50.754Z,99786.47
2023-03-26T12:45:16.285Z,99814.00
2023-03-26T12:48:01.144Z,99799.59
2023-03-26T12:50:46.596Z,99805.97
2023-03-26T12:53:43.035Z,99722.31
2023-03-26T12:56:22.198Z,99798.16
2023-03-26T12:59:14.370Z,99801.97
2023-03-26T13:01:51.957Z,99799.91
2023-03-26T13:04:38.853Z,99799.59
2023-03-26T13:07:18.404Z,99802.81
2023-03-26T13:10:08.648Z,99709.75
2023-03-26T13:12:47.215Z,99141.22
2023-03-26T13:15:24.949Z,99358.19
2023-03-26T13:18:05.628Z,99622.66
2023-03-26T13:20:49.642Z,99122.69
2023-03-26T13:23:30.598Z,99210.56
2023-03-26T13:26:07.935Z,99591.38
2023-03-26T13:28:47.860Z,99538.53
2023-03-26T13:31:23.588Z,99347.72
2023-03-26T13:34:01.828Z,99295.00
2023-03-26T13:36:41.073Z,99130.19
2023-03-26T13:39:29.798Z,99806.75
2023-03-26T13:42:11.299Z,99469.44
2023-03-26T13:45:04.759Z,99430.75
2023-03-26T13:47:38.199Z,99371.47
2023-03-26T13:50:22.201Z,99212.44
2023-03-26T13:52:57.888Z,99389.63
2023-03-26T13:55:31.414Z,99418.94
2023-03-26T13:58:07.127Z,99810.59
2023-03-26T14:00:59.556Z,99140.47
2023-03-26T14:03:45.398Z,99721.81
2023-03-26T14:06:28.978Z,99803.13
2023-03-26T14:09:02.801Z,99635.88
2023-03-26T14:11:45.973Z,99818.41
2023-03-26T14:14:17.927Z,99504.06
2023-03-26T14:16:53.711Z,99546.81
2023-03-26T14:19:54.430Z,99822.44
2023-03-26T14:22:30.509Z,99715.34
2023-03-26T14:25:21.201Z,99727.88
2023-03-26T14:28:21.346Z,99825.47
2023-03-26T14:31:19.771Z,99481.81
2023-03-26T14:34:02.363Z,99627.66
2023-03-26T14:36:58.391Z,99829.25
2023-03-26T14:39:39.232Z,99838.53
2023-03-26T14:42:13.948Z,99828.44
2023-03-26T14:45:13.793Z,99824.22
2023-03-26T14:47:47.543Z,99806.00
2023-03-26T14:50:38.002Z,99673.41
2023-03-26T14:53:17.367Z,99714.22
2023-03-26T14:56:05.208Z,99825.78
2023-03-26T14:59:01.669Z,99699.34
2023-03-26T15:01:38.563Z,99825.91
2023-03-26T15:04:44.358Z,99773.84
2023-03-26T15:07:41.490Z,99833.47
2023-03-26T15:11:11.341Z,99832.56
2023-03-26T15:13:56.976Z,99833.91
2023-03-26T15:16:54.137Z,99678.06
2023-03-26T15:19:57.582Z,99841.09
2023-03-26T15:22:58.985Z,99830.25
2023-03-26T15:26:05.839Z,99838.53
2023-03-26T15:29:08.574Z,99846.06
2023-03-26T15:32:22.473Z,99763.50
2023-03-26T15:35:21.281Z,99856.31
2023-03-26T15:38:34.832Z,99864.81
2023-03-26T15:41:25.712Z,99857.66
2023-03-26T15:44:43.826Z,99758.09
2023-03-26T15:47:36.485Z,99662.31
2023-03-26T15:50:23.389Z,99824.78
2023-03-26T15:53:00.518Z,99856.63
2023-03-26T15:55:36.661Z,99782.31
2023-03-26T15:58:15.415Z,99875.53
2023-03-26T16:00:51.308Z,99887.31
2023-03-26T16:03:34.527Z,99890.47
2023-03-26T16:06:28.408Z,99839.34
2023-03-26T16:09:16.652Z,99893.66
2023-03-26T16:11:49.736Z,99883.97
2023-03-26T16:14:23.686Z,99884.56
2023-03-26T16:16:58.685Z,99892.84
2023-03-26T16:19:50.336Z,99895.91
2023-03-26T16:22:42.380Z,99894.78
2023-03-26T16:25:31.966Z,99832.22
2023-03-26T16:28:29.002Z,99892.38
2023-03-26T16:31:37.084Z,99828.09
2023-03-26T16:34:29.695Z,99907.00
2023-03-26T16:37:00.883Z,99904.19
2023-03-26T16:39:43.755Z,99864.28
2023-03-26T16:42:31.890Z,99929.31
2023-03-26T16:45:16.154Z,99818.13
2023-03-26T16:47:56.297Z,99906.81
2023-03-26T16:50:35.191Z,99885.34
2023-03-26T16:53:23.130Z,99904.69
2023-03-26T16:55:57.863Z,99923.88
2023-03-26T16:58:36.313Z,99913.47
2023-03-26T17:01:23.261Z,99884.13
2023-03-26T17:03:56.742Z,99913.38
2023-03-26T17:07:02.126Z,99902.56
2023-03-26T17:09:42.237Z,99895.13
2023-03-26T17:12:19.947Z,99897.63
2023-03-26T17:15:01.649Z,99917.94
2023-03-26T17:17:45.817Z,99922.22
2023-03-26T17:20:33.060Z,99932.59
2023-03-26T17:23:12.678Z,99930.81
2023-03-26T17:25:55.662Z,99906.59
2023-03-26T17:28:39.121Z,99925.94
2023-03-26T17:31:18.915Z,99916.44
2023-03-26T17:33:48.193Z,99903.06
2023-03-26T17:36:46.411Z,99768.44
2023-03-26T17:39:46.422Z,99928.72
2023-03-26T17:42:27.568Z,99886.13
2023-03-26T17:44:56.699Z,99923.47
2023-03-26T17:47:38.319Z,99920.00
2023-03-26T17:50:14.961Z,99925.00
2023-03-26T17:52:55.021Z,99923.31
2023-03-26T17:55:26.045Z,99918.78
2023-03-26T17:57:59.041Z,99908.47
2023-03-26T18:00:33.468Z,99912.75
2023-03-26T18:03:05.853Z,99916.13
2023-03-26T18:05:37.626Z,99919.41
2023-03-26T18:08:37.689Z,99812.25
2023-03-26T18:11:24.885Z,99917.34
2023-03-26T18:14:23.536Z,99858.19
2023-03-26T18:16:54.311Z,99911.31
2023-03-26T18:19:26.951Z,99914.00
2023-03-26T18:21:58.692Z,99918.16
2023-03-26T18:24:29.987Z,99892.34
2023-03-26T18:27:02.689Z,99924.19
2023-03-26T18:29:33.637Z,99922.50
2023-03-26T18:32:04.166Z,99924.28
2023-03-26T18:34:34.687Z,99931.19
2023-03-26T18:37:15.759Z,99931.28
2023-03-26T18:39:45.633Z,99885.25
2023-03-26T18:42:24.484Z,99927.84
2023-03-26T18:44:59.573Z,99931.19
2023-03-26T18:47:31.717Z,99925.06
2023-03-26T18:50:00.885Z,99926.75
2023-03-26T18:52:30.079Z,99948.25
2023-03-26T18:54:59.536Z,99929.97
2023-03-26T18:57:29.747Z,99887.72
2023-03-26T19:00:10.916Z,99929.06
2023-03-26T19:02:42.543Z,99928.19
2023-03-26T19:05:16.643Z,99920.91
2023-03-26T19:07:47.247Z,99933.16
2023-03-26T19:10:22.216Z,99942.66
2023-03-26T19:12:56.678Z,99930.31
2023-03-26T19:15:31.403Z,99777.63
2023-03-26T19:18:07.147Z,99945.94
2023-03-26T19:20:43.765Z,99939.91
2023-03-26T19:23:16.417Z,99937.31
2023-03-26T19:25:48.702Z,99936.34
2023-03-26T19:28:20.909Z,99913.97
2023-03-26T19:30:55.689Z,99939.09
2023-03-26T19:33:24.551Z,99934.38
2023-03-26T19:35:54.909Z,99804.03
2023-03-26T19:38:25.650Z,99832.88
2023-03-26T19:40:58.757Z,99922.50
2023-03-26T19:43:27.118Z,99947.34
2023-03-26T19:46:01.633Z,99931.09
2023-03-26T19:48:45.796Z,99937.16
2023-03-26T19:51:24.150Z,99898.97
2023-03-26T19:53:56.210Z,99944.50
2023-03-26T19:56:24.381Z,99936.59
2023-03-26T19:58:52.587Z,99903.84
2023-03-26T20:01:24.406Z,99873.50
2023-03-26T20:03:55.591Z,99944.06
2023-03-26T20:06:41.629Z,99913.06
2023-03-26T20:09:12.367Z,99943.06
2023-03-26T20:11:41.073Z,99950.88
2023-03-26T20:14:14.185Z,99891.50
2023-03-26T20:16:46.264Z,99945.72
2023-03-26T20:19:15.391Z,99933.22
2023-03-26T20:21:45.027Z,99888.41
2023-03-26T20:24:17.536Z,99917.41
2023-03-26T20:26:47.404Z,99914.03
2023-03-26T20:29:15.981Z,99933.31
2023-03-26T20:31:49.794Z,99928.06
2023-03-26T20:34:19.860Z,99898.69
2023-03-26T20:36:54.439Z,99885.47
2023-03-26T20:39:23.499Z,99799.22
2023-03-26T20:41:56.442Z,99905.25
2023-03-26T20:44:26.875Z,99928.50
2023-03-26T20:46:59.102Z,99919.72
2023-03-26T20:49:29.563Z,99918.66
2023-03-26T20:51:57.594Z,99802.31
2023-03-26T20:54:29.893Z,99919.16
2023-03-26T20:56:58.299Z,99819.50
2023-03-26T20:59:28.059Z,99809.34
2023-03-26T21:01:59.467Z,99873.44
2023-03-26T21:04:28.342Z,99888.63
2023-03-26T21:07:07.079Z,99817.94
2023-03-26T21:09:45.100Z,99918.16
2023-03-26T21:12:23.502Z,99894.19
2023-03-26T21:14:52.416Z,99843.78
2023-03-26T21:17:26.182Z,99907.78
2023-03-26T21:19:56.022Z,99888.84
2023-03-26T21:22:37.256Z,99911.22
2023-03-26T21:25:19.863Z,99921.50
2023-03-26T21:28:02.404Z,99904.31
2023-03-26T21:30:31.213Z,99887.16
2023-03-26T21:33:00.812Z,99912.81
2023-03-26T21:35:29.441Z,99914.59
2023-03-26T21:37:58.384Z,99916.38
2023-03-26T21:40:26.850Z,99911.22
2023-03-26T21:42:55.811Z,99912.03
2023-03-26T21:45:24.794Z,99915.31
2023-03-26T21:47:53.603Z,99917.88
2023-03-26T21:50:25.784Z,99916.19
2023-03-26T21:52:54.283Z,99920.53
2023-03-26T21:55:24.113Z,99893.09
2023-03-26T21:58:12.492Z,99911.03
2023-03-26T22:00:50.589Z,99915.22
2023-03-26T22:03:25.487Z,99911.47
2023-03-26T22:06:03.604Z,99911.28
2023-03-26T22:08:36.597Z,99906.03
2023-03-26T22:11:04.493Z,99912.06
2023-03-26T22:13:32.725Z,99849.47
2023-03-26T22:16:01.113Z,99744.19
2023-03-26T22:18:30.304Z,99911.41
2023-03-26T22:21:00.453Z,99885.47
2023-03-26T22:23:34.391Z,99918.06
2023-03-26T22:26:02.906Z,99914.50
2023-03-26T22:28:31.201Z,99918.66
2023-03-26T22:30:59.665Z,99910.84
2023-03-26T22:33:28.214Z,99916.78
2023-03-26T22:35:56.804Z,99859.69
2023-03-26T22:38:26.379Z,99909.88
2023-03-26T22:40:57.793Z,99916.50
2023-03-26T22:43:26.211Z,99919.84
2023-03-26T22:45:55.155Z,99896.69
2023-03-26T22:48:24.453Z,99919.06
2023-03-26T22:51:01.170Z,99866.88
2023-03-26T22:53:33.605Z,99924.81
2023-03-26T22:56:02.124Z,99927.88
2023-03-26T22:58:30.566Z,99893.63
2023-03-26T23:01:03.988Z,99923.53
2023-03-26T23:03:35.398Z,99923.72
2023-03-26T23:06:06.528Z,99919.47
2023-03-26T23:08:38.308Z,99915.94
2023-03-26T23:11:10.211Z,99923.63
2023-03-26T23:13:38.172Z,99771.25
2023-03-26T23:16:07.366Z,99925.13
2023-03-26T23:18:36.756Z,99902.22
2023-03-26T23:21:06.054Z,99924.22
2023-03-26T23:23:41.842Z,99917.50
2023-03-26T23:26:09.895Z,99928.66
2023-03-26T23:28:38.761Z,99924.44
2023-03-26T23:31:09.232Z,99923.63
2023-03-26T23:33:39.401Z,99926.09
2023-03-26T23:36:10.056Z,99839.28
2023-03-26T23:38:44.029Z,99924.31
2023-03-26T23:41:15.472Z,99914.06
2023-03-26T23:43:54.257Z,99916.72
2023-03-26T23:46:23.703Z,99909.91
2023-03-26T23:48:52.678Z,99920.06
2023-03-26T23:51:21.618Z,99877.34
2023-03-26T23:53:50.500Z,99920.59
2023-03-26T23:56:20.240Z,99925.72
2023-03-26T23:58:48.834Z,99883.28
